sensor_id;sensor_type;location;lat;lon;timestamp;P1;durP1;ratioP1;P2;durP2;ratioP2
27802;SDS011;15182;48.174;11.562;2022-11-15T00:02:43;5.13;;;4.93;;
27802;SDS011;15182;48.174;11.562;2022-11-15T00:05:34;5.30;;;5.00;;
27802;SDS011;15182;48.174;11.562;2022-11-15T00:08:24;5.77;;;5.47;;
27802;SDS011;15182;48.174;11.562;2022-11-15T00:11:16;5.23;;;5.03;;
27802;SDS011;15182;48.174;11.562;2022-11-15T00:14:06;5.90;;;5.40;;
27802;SDS011;15182;48.174;11.562;2022-11-15T00:16:55;5.77;;;5.33;;
27802;SDS011;15182;48.174;11.562;2022-11-15T00:19:46;5.67;;;5.23;;
27802;SDS011;15182;48.174;11.562;2022-11-15T00:22:35;5.57;;;5.27;;
27802;SDS011;15182;48.174;11.562;2022-11-15T00:25:26;5.83;;;5.43;;
27802;SDS011;15182;48.174;11.562;2022-11-15T00:28:16;6.37;;;5.83;;
27802;SDS011;15182;48.174;11.562;2022-11-15T00:31:07;5.67;;;5.23;;
27802;SDS011;15182;48.174;11.562;2022-11-15T00:33:58;5.83;;;5.27;;
27802;SDS011;15182;48.174;11.562;2022-11-15T00:36:49;5.67;;;5.13;;
27802;SDS011;15182;48.174;11.562;2022-11-15T00:39:39;5.43;;;5.13;;
27802;SDS011;15182;48.174;11.562;2022-11-15T00:42:28;5.57;;;5.23;;
27802;SDS011;15182;48.174;11.562;2022-11-15T00:45:18;5.47;;;5.17;;
27802;SDS011;15182;48.174;11.562;2022-11-15T00:48:07;4.80;;;4.60;;
27802;SDS011;15182;48.174;11.562;2022-11-15T00:50:58;4.93;;;4.73;;
27802;SDS011;15182;48.174;11.562;2022-11-15T00:53:49;5.10;;;4.70;;
27802;SDS011;15182;48.174;11.562;2022-11-15T00:56:38;5.50;;;5.20;;
27802;SDS011;15182;48.174;11.562;2022-11-15T00:59:28;4.70;;;4.57;;
27802;SDS011;15182;48.174;11.562;2022-11-15T01:02:17;5.27;;;4.87;;
27802;SDS011;15182;48.174;11.562;2022-11-15T01:05:07;4.80;;;4.70;;
27802;SDS011;15182;48.174;11.562;2022-11-15T01:07:57;4.77;;;4.57;;
27802;SDS011;15182;48.174;11.562;2022-11-15T01:10:48;4.23;;;4.13;;
27802;SDS011;15182;48.174;11.562;2022-11-15T01:13:38;4.87;;;4.47;;
27802;SDS011;15182;48.174;11.562;2022-11-15T01:16:27;4.60;;;4.40;;
27802;SDS011;15182;48.174;11.562;2022-11-15T01:19:17;4.57;;;4.37;;
27802;SDS011;15182;48.174;11.562;2022-11-15T01:22:07;4.03;;;3.93;;
27802;SDS011;15182;48.174;11.562;2022-11-15T01:24:56;4.27;;;4.07;;
27802;SDS011;15182;48.174;11.562;2022-11-15T01:27:48;4.47;;;4.27;;
27802;SDS011;15182;48.174;11.562;2022-11-15T01:30:37;4.30;;;4.10;;
27802;SDS011;15182;48.174;11.562;2022-11-15T01:33:27;4.63;;;4.43;;
27802;SDS011;15182;48.174;11.562;2022-11-15T01:36:19;4.40;;;4.20;;
27802;SDS011;15182;48.174;11.562;2022-11-15T01:39:09;4.80;;;4.50;;
27802;SDS011;15182;48.174;11.562;2022-11-15T01:41:59;4.60;;;4.40;;
27802;SDS011;15182;48.174;11.562;2022-11-15T01:44:50;4.07;;;3.97;;
27802;SDS011;15182;48.174;11.562;2022-11-15T01:47:40;4.10;;;4.00;;
27802;SDS011;15182;48.174;11.562;2022-11-15T01:50:33;4.10;;;3.80;;
27802;SDS011;15182;48.174;11.562;2022-11-15T01:53:23;4.60;;;4.40;;
27802;SDS011;15182;48.174;11.562;2022-11-15T01:56:15;4.10;;;4.00;;
27802;SDS011;15182;48.174;11.562;2022-11-15T01:59:12;4.40;;;4.10;;
27802;SDS011;15182;48.174;11.562;2022-11-15T02:02:04;3.70;;;3.60;;
27802;SDS011;15182;48.174;11.562;2022-11-15T02:04:55;3.93;;;3.83;;
27802;SDS011;15182;48.174;11.562;2022-11-15T02:07:45;4.10;;;3.90;;
27802;SDS011;15182;48.174;11.562;2022-11-15T02:10:35;4.03;;;3.77;;
27802;SDS011;15182;48.174;11.562;2022-11-15T02:13:25;4.80;;;4.60;;
27802;SDS011;15182;48.174;11.562;2022-11-15T02:16:16;3.93;;;3.77;;
27802;SDS011;15182;48.174;11.562;2022-11-15T02:19:19;3.77;;;3.67;;
27802;SDS011;15182;48.174;11.562;2022-11-15T02:22:25;4.30;;;4.13;;
27802;SDS011;15182;48.174;11.562;2022-11-15T02:25:31;3.90;;;3.80;;
27802;SDS011;15182;48.174;11.562;2022-11-15T02:28:42;4.20;;;4.03;;
27802;SDS011;15182;48.174;11.562;2022-11-15T02:31:39;4.20;;;4.10;;
27802;SDS011;15182;48.174;11.562;2022-11-15T02:34:39;4.20;;;4.07;;
27802;SDS011;15182;48.174;11.562;2022-11-15T02:37:42;3.90;;;3.80;;
27802;SDS011;15182;48.174;11.562;2022-11-15T02:40:41;4.30;;;4.20;;
27802;SDS011;15182;48.174;11.562;2022-11-15T02:43:43;4.37;;;4.17;;
27802;SDS011;15182;48.174;11.562;2022-11-15T02:46:43;4.10;;;4.00;;
27802;SDS011;15182;48.174;11.562;2022-11-15T02:49:56;4.07;;;3.97;;
27802;SDS011;15182;48.174;11.562;2022-11-15T02:52:50;3.93;;;3.80;;
27802;SDS011;15182;48.174;11.562;2022-11-15T02:55:41;4.60;;;4.40;;
27802;SDS011;15182;48.174;11.562;2022-11-15T03:02:04;4.13;;;4.00;;
27802;SDS011;15182;48.174;11.562;2022-11-15T03:05:08;4.00;;;3.90;;
27802;SDS011;15182;48.174;11.562;2022-11-15T03:08:08;4.20;;;4.10;;
27802;SDS011;15182;48.174;11.562;2022-11-15T03:11:08;4.33;;;4.13;;
27802;SDS011;15182;48.174;11.562;2022-11-15T03:14:01;4.30;;;4.20;;
27802;SDS011;15182;48.174;11.562;2022-11-15T03:17:05;3.97;;;3.83;;
27802;SDS011;15182;48.174;11.562;2022-11-15T03:20:04;4.90;;;4.70;;
27802;SDS011;15182;48.174;11.562;2022-11-15T03:22:59;5.60;;;4.70;;
27802;SDS011;15182;48.174;11.562;2022-11-15T03:25:53;5.00;;;4.80;;
27802;SDS011;15182;48.174;11.562;2022-11-15T03:28:46;5.10;;;4.80;;
27802;SDS011;15182;48.174;11.562;2022-11-15T03:31:40;4.13;;;4.03;;
27802;SDS011;15182;48.174;11.562;2022-11-15T03:34:37;4.30;;;4.20;;
27802;SDS011;15182;48.174;11.562;2022-11-15T03:37:31;3.70;;;3.60;;
27802;SDS011;15182;48.174;11.562;2022-11-15T03:40:30;4.30;;;4.20;;
27802;SDS011;15182;48.174;11.562;2022-11-15T03:43:29;3.80;;;3.70;;
27802;SDS011;15182;48.174;11.562;2022-11-15T03:46:25;3.80;;;3.70;;
27802;SDS011;15182;48.174;11.562;2022-11-15T03:49:22;4.33;;;4.20;;
27802;SDS011;15182;48.174;11.562;2022-11-15T03:52:18;3.87;;;3.77;;
27802;SDS011;15182;48.174;11.562;2022-11-15T03:55:10;4.00;;;3.90;;
27802;SDS011;15182;48.174;11.562;2022-11-15T03:58:03;3.70;;;3.60;;
27802;SDS011;15182;48.174;11.562;2022-11-15T04:00:52;3.63;;;3.53;;
27802;SDS011;15182;48.174;11.562;2022-11-15T04:03:43;3.73;;;3.63;;
27802;SDS011;15182;48.174;11.562;2022-11-15T04:06:33;4.03;;;3.93;;
27802;SDS011;15182;48.174;11.562;2022-11-15T04:09:24;4.17;;;3.90;;
27802;SDS011;15182;48.174;11.562;2022-11-15T04:12:15;3.80;;;3.70;;
27802;SDS011;15182;48.174;11.562;2022-11-15T04:15:15;3.53;;;3.43;;
27802;SDS011;15182;48.174;11.562;2022-11-15T04:18:07;3.70;;;3.60;;
27802;SDS011;15182;48.174;11.562;2022-11-15T04:20:57;4.30;;;4.20;;
27802;SDS011;15182;48.174;11.562;2022-11-15T04:24:05;5.53;;;3.77;;
27802;SDS011;15182;48.174;11.562;2022-11-15T04:27:00;3.63;;;3.53;;
27802;SDS011;15182;48.174;11.562;2022-11-15T04:29:50;3.70;;;3.60;;
27802;SDS011;15182;48.174;11.562;2022-11-15T04:32:40;3.70;;;3.60;;
27802;SDS011;15182;48.174;11.562;2022-11-15T04:35:29;3.93;;;3.43;;
27802;SDS011;15182;48.174;11.562;2022-11-15T04:38:19;4.93;;;4.73;;
27802;SDS011;15182;48.174;11.562;2022-11-15T04:41:08;4.50;;;4.40;;
27802;SDS011;15182;48.174;11.562;2022-11-15T04:43:59;4.97;;;4.67;;
27802;SDS011;15182;48.174;11.562;2022-11-15T04:46:49;4.43;;;4.23;;
27802;SDS011;15182;48.174;11.562;2022-11-15T04:49:39;4.83;;;4.70;;
27802;SDS011;15182;48.174;11.562;2022-11-15T04:52:29;4.63;;;4.43;;
27802;SDS011;15182;48.174;11.562;2022-11-15T04:55:17;4.20;;;4.10;;
27802;SDS011;15182;48.174;11.562;2022-11-15T04:58:08;4.40;;;4.30;;
27802;SDS011;15182;48.174;11.562;2022-11-15T05:00:59;4.50;;;4.20;;
27802;SDS011;15182;48.174;11.562;2022-11-15T05:03:54;4.23;;;4.03;;
27802;SDS011;15182;48.174;11.562;2022-11-15T05:07:01;4.87;;;4.67;;
27802;SDS011;15182;48.174;11.562;2022-11-15T05:09:51;4.40;;;4.20;;
27802;SDS011;15182;48.174;11.562;2022-11-15T05:12:40;4.30;;;4.20;;
27802;SDS011;15182;48.174;11.562;2022-11-15T05:15:30;4.00;;;3.90;;
27802;SDS011;15182;48.174;11.562;2022-11-15T05:18:20;4.47;;;4.33;;
27802;SDS011;15182;48.174;11.562;2022-11-15T05:21:12;4.77;;;4.60;;
27802;SDS011;15182;48.174;11.562;2022-11-15T05:24:02;4.23;;;3.93;;
27802;SDS011;15182;48.174;11.562;2022-11-15T05:26:54;5.17;;;4.97;;
27802;SDS011;15182;48.174;11.562;2022-11-15T05:29:43;4.67;;;4.47;;
27802;SDS011;15182;48.174;11.562;2022-11-15T05:32:33;5.10;;;4.80;;
27802;SDS011;15182;48.174;11.562;2022-11-15T05:35:25;4.70;;;4.50;;
27802;SDS011;15182;48.174;11.562;2022-11-15T05:38:22;5.70;;;5.40;;
27802;SDS011;15182;48.174;11.562;2022-11-15T05:41:12;4.93;;;4.73;;
27802;SDS011;15182;48.174;11.562;2022-11-15T05:44:06;5.40;;;5.00;;
27802;SDS011;15182;48.174;11.562;2022-11-15T05:46:58;5.73;;;5.23;;
27802;SDS011;15182;48.174;11.562;2022-11-15T05:49:50;5.77;;;5.37;;
27802;SDS011;15182;48.174;11.562;2022-11-15T05:52:42;6.17;;;5.57;;
27802;SDS011;15182;48.174;11.562;2022-11-15T05:55:33;7.17;;;5.90;;
27802;SDS011;15182;48.174;11.562;2022-11-15T05:58:24;6.20;;;5.53;;
27802;SDS011;15182;48.174;11.562;2022-11-15T06:01:16;6.30;;;5.70;;
27802;SDS011;15182;48.174;11.562;2022-11-15T06:04:06;6.67;;;5.33;;
27802;SDS011;15182;48.174;11.562;2022-11-15T06:06:56;5.83;;;5.30;;
27802;SDS011;15182;48.174;11.562;2022-11-15T06:09:48;6.20;;;5.80;;
27802;SDS011;15182;48.174;11.562;2022-11-15T06:12:38;6.13;;;5.53;;
27802;SDS011;15182;48.174;11.562;2022-11-15T06:15:27;7.40;;;5.33;;
27802;SDS011;15182;48.174;11.562;2022-11-15T06:18:20;5.73;;;5.27;;
27802;SDS011;15182;48.174;11.562;2022-11-15T06:21:10;4.93;;;4.70;;
27802;SDS011;15182;48.174;11.562;2022-11-15T06:24:00;5.10;;;4.70;;
27802;SDS011;15182;48.174;11.562;2022-11-15T06:26:51;5.80;;;5.20;;
27802;SDS011;15182;48.174;11.562;2022-11-15T06:29:41;5.37;;;5.07;;
27802;SDS011;15182;48.174;11.562;2022-11-15T06:32:31;4.87;;;4.57;;
27802;SDS011;15182;48.174;11.562;2022-11-15T06:35:20;5.17;;;4.93;;
27802;SDS011;15182;48.174;11.562;2022-11-15T06:38:10;5.50;;;5.07;;
27802;SDS011;15182;48.174;11.562;2022-11-15T06:41:01;5.10;;;4.53;;
27802;SDS011;15182;48.174;11.562;2022-11-15T06:43:54;4.70;;;4.50;;
27802;SDS011;15182;48.174;11.562;2022-11-15T06:46:44;6.10;;;4.50;;
27802;SDS011;15182;48.174;11.562;2022-11-15T06:49:34;5.27;;;4.90;;
27802;SDS011;15182;48.174;11.562;2022-11-15T06:52:24;4.93;;;4.60;;
27802;SDS011;15182;48.174;11.562;2022-11-15T06:55:16;4.90;;;4.47;;
27802;SDS011;15182;48.174;11.562;2022-11-15T06:58:06;5.10;;;4.77;;
27802;SDS011;15182;48.174;11.562;2022-11-15T07:00:59;4.63;;;4.43;;
27802;SDS011;15182;48.174;11.562;2022-11-15T07:03:52;4.77;;;4.47;;
27802;SDS011;15182;48.174;11.562;2022-11-15T07:06:41;3.73;;;3.63;;
27802;SDS011;15182;48.174;11.562;2022-11-15T07:09:33;4.77;;;4.47;;
27802;SDS011;15182;48.174;11.562;2022-11-15T07:12:25;5.00;;;4.60;;
27802;SDS011;15182;48.174;11.562;2022-11-15T07:15:16;4.33;;;4.10;;
27802;SDS011;15182;48.174;11.562;2022-11-15T07:18:10;4.97;;;4.47;;
27802;SDS011;15182;48.174;11.562;2022-11-15T07:21:00;4.67;;;4.37;;
27802;SDS011;15182;48.174;11.562;2022-11-15T07:23:50;4.80;;;4.43;;
27802;SDS011;15182;48.174;11.562;2022-11-15T07:26:39;5.13;;;4.90;;
27802;SDS011;15182;48.174;11.562;2022-11-15T07:29:29;4.40;;;4.23;;
27802;SDS011;15182;48.174;11.562;2022-11-15T07:32:18;8.17;;;4.43;;
27802;SDS011;15182;48.174;11.562;2022-11-15T07:35:09;4.40;;;4.00;;
27802;SDS011;15182;48.174;11.562;2022-11-15T07:38:00;4.17;;;4.07;;
27802;SDS011;15182;48.174;11.562;2022-11-15T07:40:55;4.47;;;4.37;;
27802;SDS011;15182;48.174;11.562;2022-11-15T07:43:47;3.57;;;3.47;;
27802;SDS011;15182;48.174;11.562;2022-11-15T07:46:38;4.10;;;4.00;;
27802;SDS011;15182;48.174;11.562;2022-11-15T07:49:28;3.97;;;3.87;;
27802;SDS011;15182;48.174;11.562;2022-11-15T07:52:19;5.63;;;4.20;;
27802;SDS011;15182;48.174;11.562;2022-11-15T07:55:08;4.60;;;4.20;;
27802;SDS011;15182;48.174;11.562;2022-11-15T07:58:02;4.67;;;4.47;;
27802;SDS011;15182;48.174;11.562;2022-11-15T08:00:54;4.57;;;4.27;;
27802;SDS011;15182;48.174;11.562;2022-11-15T08:03:43;4.50;;;4.10;;
27802;SDS011;15182;48.174;11.562;2022-11-15T08:06:33;8.23;;;4.43;;
27802;SDS011;15182;48.174;11.562;2022-11-15T08:09:25;4.53;;;4.20;;
27802;SDS011;15182;48.174;11.562;2022-11-15T08:12:14;6.43;;;5.03;;
27802;SDS011;15182;48.174;11.562;2022-11-15T08:15:04;4.97;;;4.63;;
27802;SDS011;15182;48.174;11.562;2022-11-15T08:17:56;4.87;;;4.57;;
27802;SDS011;15182;48.174;11.562;2022-11-15T08:20:49;7.67;;;4.40;;
27802;SDS011;15182;48.174;11.562;2022-11-15T08:23:43;4.93;;;4.53;;
27802;SDS011;15182;48.174;11.562;2022-11-15T08:26:34;4.57;;;4.30;;
27802;SDS011;15182;48.174;11.562;2022-11-15T08:29:24;5.40;;;5.10;;
27802;SDS011;15182;48.174;11.562;2022-11-15T08:32:14;4.70;;;4.47;;
27802;SDS011;15182;48.174;11.562;2022-11-15T08:35:04;4.30;;;4.20;;
27802;SDS011;15182;48.174;11.562;2022-11-15T08:37:54;4.73;;;4.53;;
27802;SDS011;15182;48.174;11.562;2022-11-15T08:40:44;4.80;;;4.50;;
27802;SDS011;15182;48.174;11.562;2022-11-15T08:43:35;4.60;;;4.40;;
27802;SDS011;15182;48.174;11.562;2022-11-15T08:46:24;3.97;;;3.87;;
27802;SDS011;15182;48.174;11.562;2022-11-15T08:49:14;5.80;;;4.07;;
27802;SDS011;15182;48.174;11.562;2022-11-15T08:52:03;4.40;;;4.27;;
27802;SDS011;15182;48.174;11.562;2022-11-15T08:54:53;4.50;;;4.30;;
27802;SDS011;15182;48.174;11.562;2022-11-15T08:57:42;3.97;;;3.77;;
27802;SDS011;15182;48.174;11.562;2022-11-15T09:00:32;4.33;;;4.03;;
27802;SDS011;15182;48.174;11.562;2022-11-15T09:03:22;4.07;;;3.80;;
27802;SDS011;15182;48.174;11.562;2022-11-15T09:06:12;4.23;;;4.03;;
27802;SDS011;15182;48.174;11.562;2022-11-15T09:09:02;4.37;;;3.87;;
27802;SDS011;15182;48.174;11.562;2022-11-15T09:11:52;3.43;;;3.23;;
27802;SDS011;15182;48.174;11.562;2022-11-15T09:14:42;4.47;;;3.60;;
27802;SDS011;15182;48.174;11.562;2022-11-15T09:17:32;4.20;;;3.97;;
27802;SDS011;15182;48.174;11.562;2022-11-15T09:20:23;3.87;;;3.67;;
27802;SDS011;15182;48.174;11.562;2022-11-15T09:23:12;3.97;;;3.87;;
27802;SDS011;15182;48.174;11.562;2022-11-15T09:26:02;3.87;;;3.57;;
27802;SDS011;15182;48.174;11.562;2022-11-15T09:28:53;3.90;;;3.70;;
27802;SDS011;15182;48.174;11.562;2022-11-15T09:31:42;3.90;;;3.80;;
27802;SDS011;15182;48.174;11.562;2022-11-15T09:34:34;4.17;;;4.07;;
27802;SDS011;15182;48.174;11.562;2022-11-15T09:37:23;4.27;;;3.97;;
27802;SDS011;15182;48.174;11.562;2022-11-15T09:40:13;4.33;;;3.90;;
27802;SDS011;15182;48.174;11.562;2022-11-15T09:43:07;4.03;;;3.83;;
27802;SDS011;15182;48.174;11.562;2022-11-15T09:46:12;3.87;;;3.77;;
27802;SDS011;15182;48.174;11.562;2022-11-15T09:49:06;3.40;;;3.40;;
27802;SDS011;15182;48.174;11.562;2022-11-15T09:52:11;3.97;;;3.77;;
27802;SDS011;15182;48.174;11.562;2022-11-15T09:54:43;3.93;;;3.60;;
27802;SDS011;15182;48.174;11.562;2022-11-15T09:57:19;4.50;;;4.10;;
27802;SDS011;15182;48.174;11.562;2022-11-15T09:59:59;4.20;;;3.87;;
27802;SDS011;15182;48.174;11.562;2022-11-15T10:02:43;3.83;;;3.73;;
27802;SDS011;15182;48.174;11.562;2022-11-15T10:05:28;3.80;;;3.70;;
27802;SDS011;15182;48.174;11.562;2022-11-15T10:08:05;3.40;;;3.20;;
27802;SDS011;15182;48.174;11.562;2022-11-15T10:11:03;3.87;;;3.67;;
27802;SDS011;15182;48.174;11.562;2022-11-15T10:13:39;3.63;;;3.53;;
27802;SDS011;15182;48.174;11.562;2022-11-15T10:16:19;3.50;;;3.30;;
27802;SDS011;15182;48.174;11.562;2022-11-15T10:19:21;7.10;;;3.50;;
27802;SDS011;15182;48.174;11.562;2022-11-15T10:22:00;3.23;;;3.00;;
27802;SDS011;15182;48.174;11.562;2022-11-15T10:24:45;3.33;;;3.23;;
27802;SDS011;15182;48.174;11.562;2022-11-15T10:27:17;2.80;;;2.70;;
27802;SDS011;15182;48.174;11.562;2022-11-15T10:29:50;3.60;;;3.50;;
27802;SDS011;15182;48.174;11.562;2022-11-15T10:32:21;3.53;;;3.43;;
27802;SDS011;15182;48.174;11.562;2022-11-15T10:34:53;3.13;;;3.03;;
27802;SDS011;15182;48.174;11.562;2022-11-15T10:37:28;3.40;;;3.20;;
27802;SDS011;15182;48.174;11.562;2022-11-15T10:40:06;3.40;;;3.07;;
27802;SDS011;15182;48.174;11.562;2022-11-15T10:42:44;3.37;;;3.17;;
27802;SDS011;15182;48.174;11.562;2022-11-15T10:45:31;2.90;;;2.80;;
27802;SDS011;15182;48.174;11.562;2022-11-15T10:50:53;2.50;;;2.40;;
27802;SDS011;15182;48.174;11.562;2022-11-15T10:53:27;2.37;;;2.37;;
27802;SDS011;15182;48.174;11.562;2022-11-15T11:04:43;2.50;;;2.40;;
27802;SDS011;15182;48.174;11.562;2022-11-15T11:07:19;2.37;;;2.27;;
27802;SDS011;15182;48.174;11.562;2022-11-15T11:09:58;1.90;;;1.90;;
27802;SDS011;15182;48.174;11.562;2022-11-15T11:12:32;2.27;;;2.27;;
27802;SDS011;15182;48.174;11.562;2022-11-15T11:15:09;2.73;;;2.63;;
27802;SDS011;15182;48.174;11.562;2022-11-15T11:17:48;2.17;;;2.17;;
27802;SDS011;15182;48.174;11.562;2022-11-15T11:20:30;2.03;;;2.03;;
27802;SDS011;15182;48.174;11.562;2022-11-15T11:23:15;2.10;;;2.10;;
27802;SDS011;15182;48.174;11.562;2022-11-15T11:26:15;2.27;;;2.27;;
27802;SDS011;15182;48.174;11.562;2022-11-15T11:29:00;2.50;;;2.40;;
27802;SDS011;15182;48.174;11.562;2022-11-15T11:31:43;2.50;;;2.30;;
27802;SDS011;15182;48.174;11.562;2022-11-15T11:34:29;2.40;;;2.40;;
27802;SDS011;15182;48.174;11.562;2022-11-15T11:37:12;2.40;;;2.40;;
27802;SDS011;15182;48.174;11.562;2022-11-15T11:39:54;3.53;;;2.27;;
27802;SDS011;15182;48.174;11.562;2022-11-15T11:42:35;2.60;;;2.50;;
27802;SDS011;15182;48.174;11.562;2022-11-15T11:45:18;2.20;;;2.20;;
27802;SDS011;15182;48.174;11.562;2022-11-15T11:48:10;2.50;;;2.50;;
27802;SDS011;15182;48.174;11.562;2022-11-15T11:50:48;2.30;;;2.20;;
27802;SDS011;15182;48.174;11.562;2022-11-15T11:53:25;2.10;;;2.10;;
27802;SDS011;15182;48.174;11.562;2022-11-15T11:56:03;2.20;;;2.20;;
27802;SDS011;15182;48.174;11.562;2022-11-15T11:58:43;2.60;;;2.50;;
27802;SDS011;15182;48.174;11.562;2022-11-15T12:01:20;2.27;;;2.17;;
27802;SDS011;15182;48.174;11.562;2022-11-15T12:03:55;2.43;;;2.23;;
27802;SDS011;15182;48.174;11.562;2022-11-15T12:06:31;2.53;;;2.43;;
27802;SDS011;15182;48.174;11.562;2022-11-15T12:09:14;1.97;;;1.93;;
27802;SDS011;15182;48.174;11.562;2022-11-15T12:11:52;7.00;;;2.47;;
27802;SDS011;15182;48.174;11.562;2022-11-15T12:14:35;2.67;;;2.67;;
27802;SDS011;15182;48.174;11.562;2022-11-15T12:17:15;2.30;;;2.27;;
27802;SDS011;15182;48.174;11.562;2022-11-15T12:19:51;2.67;;;2.67;;
27802;SDS011;15182;48.174;11.562;2022-11-15T12:22:28;2.90;;;2.80;;
27802;SDS011;15182;48.174;11.562;2022-11-15T12:25:13;2.50;;;2.50;;
27802;SDS011;15182;48.174;11.562;2022-11-15T12:27:52;1.90;;;1.90;;
27802;SDS011;15182;48.174;11.562;2022-11-15T12:30:27;2.43;;;2.43;;
27802;SDS011;15182;48.174;11.562;2022-11-15T12:33:17;3.30;;;3.10;;
27802;SDS011;15182;48.174;11.562;2022-11-15T12:36:09;2.57;;;2.50;;
27802;SDS011;15182;48.174;11.562;2022-11-15T12:39:02;6.63;;;2.50;;
27802;SDS011;15182;48.174;11.562;2022-11-15T12:41:36;2.77;;;2.30;;
27802;SDS011;15182;48.174;11.562;2022-11-15T12:44:10;2.37;;;2.33;;
27802;SDS011;15182;48.174;11.562;2022-11-15T12:47:23;2.60;;;2.60;;
27802;SDS011;15182;48.174;11.562;2022-11-15T12:49:56;3.67;;;2.47;;
27802;SDS011;15182;48.174;11.562;2022-11-15T12:52:29;2.70;;;2.50;;
27802;SDS011;15182;48.174;11.562;2022-11-15T12:55:00;2.60;;;2.40;;
27802;SDS011;15182;48.174;11.562;2022-11-15T12:57:58;2.33;;;2.33;;
27802;SDS011;15182;48.174;11.562;2022-11-15T13:01:08;2.50;;;2.50;;
27802;SDS011;15182;48.174;11.562;2022-11-15T13:04:21;3.30;;;3.03;;
27802;SDS011;15182;48.174;11.562;2022-11-15T13:06:53;2.93;;;2.73;;
27802;SDS011;15182;48.174;11.562;2022-11-15T13:15:36;2.80;;;2.70;;
27802;SDS011;15182;48.174;11.562;2022-11-15T13:18:26;3.00;;;2.90;;
27802;SDS011;15182;48.174;11.562;2022-11-15T13:21:03;3.33;;;3.23;;
27802;SDS011;15182;48.174;11.562;2022-11-15T13:24:11;2.83;;;2.83;;
27802;SDS011;15182;48.174;11.562;2022-11-15T13:26:45;2.40;;;2.40;;
27802;SDS011;15182;48.174;11.562;2022-11-15T13:29:16;3.10;;;3.00;;
27802;SDS011;15182;48.174;11.562;2022-11-15T13:31:49;2.90;;;2.80;;
27802;SDS011;15182;48.174;11.562;2022-11-15T13:34:24;2.90;;;2.80;;
27802;SDS011;15182;48.174;11.562;2022-11-15T13:36:58;2.97;;;2.97;;
27802;SDS011;15182;48.174;11.562;2022-11-15T13:39:30;2.97;;;2.97;;
27802;SDS011;15182;48.174;11.562;2022-11-15T13:42:04;3.40;;;3.30;;
27802;SDS011;15182;48.174;11.562;2022-11-15T13:44:53;3.03;;;2.93;;
27802;SDS011;15182;48.174;11.562;2022-11-15T13:47:26;3.03;;;2.83;;
27802;SDS011;15182;48.174;11.562;2022-11-15T13:49:59;3.03;;;2.93;;
27802;SDS011;15182;48.174;11.562;2022-11-15T13:52:33;3.50;;;3.30;;
27802;SDS011;15182;48.174;11.562;2022-11-15T13:55:10;2.93;;;2.93;;
27802;SDS011;15182;48.174;11.562;2022-11-15T13:57:46;3.50;;;3.20;;
27802;SDS011;15182;48.174;11.562;2022-11-15T14:00:29;3.03;;;2.93;;
27802;SDS011;15182;48.174;11.562;2022-11-15T14:03:08;3.40;;;3.30;;
27802;SDS011;15182;48.174;11.562;2022-11-15T14:05:45;3.57;;;3.47;;
27802;SDS011;15182;48.174;11.562;2022-11-15T14:08:32;3.37;;;3.27;;
27802;SDS011;15182;48.174;11.562;2022-11-15T14:11:14;3.53;;;3.37;;
27802;SDS011;15182;48.174;11.562;2022-11-15T14:13:59;3.43;;;3.20;;
27802;SDS011;15182;48.174;11.562;2022-11-15T14:16:41;3.83;;;3.63;;
27802;SDS011;15182;48.174;11.562;2022-11-15T14:22:18;3.77;;;3.50;;
27802;SDS011;15182;48.174;11.562;2022-11-15T14:25:05;3.77;;;3.67;;
27802;SDS011;15182;48.174;11.562;2022-11-15T14:27:44;3.70;;;3.60;;
27802;SDS011;15182;48.174;11.562;2022-11-15T14:30:43;3.70;;;3.60;;
27802;SDS011;15182;48.174;11.562;2022-11-15T14:33:18;4.30;;;4.00;;
27802;SDS011;15182;48.174;11.562;2022-11-15T14:35:55;3.70;;;3.60;;
27802;SDS011;15182;48.174;11.562;2022-11-15T14:38:32;4.27;;;4.07;;
27802;SDS011;15182;48.174;11.562;2022-11-15T14:41:03;4.60;;;4.37;;
27802;SDS011;15182;48.174;11.562;2022-11-15T14:43:39;3.90;;;3.70;;
27802;SDS011;15182;48.174;11.562;2022-11-15T14:46:10;5.17;;;3.63;;
27802;SDS011;15182;48.174;11.562;2022-11-15T14:48:41;4.37;;;4.17;;
27802;SDS011;15182;48.174;11.562;2022-11-15T14:51:14;4.37;;;4.27;;
27802;SDS011;15182;48.174;11.562;2022-11-15T14:53:46;7.17;;;4.80;;
27802;SDS011;15182;48.174;11.562;2022-11-15T14:56:18;4.30;;;4.00;;
27802;SDS011;15182;48.174;11.562;2022-11-15T14:58:49;4.07;;;3.90;;
27802;SDS011;15182;48.174;11.562;2022-11-15T15:01:23;4.60;;;4.30;;
27802;SDS011;15182;48.174;11.562;2022-11-15T15:03:55;4.70;;;4.50;;
27802;SDS011;15182;48.174;11.562;2022-11-15T15:06:28;5.40;;;4.50;;
27802;SDS011;15182;48.174;11.562;2022-11-15T15:08:59;4.33;;;4.03;;
27802;SDS011;15182;48.174;11.562;2022-11-15T15:11:31;4.40;;;4.20;;
27802;SDS011;15182;48.174;11.562;2022-11-15T15:14:02;5.07;;;4.77;;
27802;SDS011;15182;48.174;11.562;2022-11-15T15:16:34;4.93;;;4.53;;
27802;SDS011;15182;48.174;11.562;2022-11-15T15:19:05;5.07;;;4.50;;
27802;SDS011;15182;48.174;11.562;2022-11-15T15:21:38;4.93;;;4.67;;
27802;SDS011;15182;48.174;11.562;2022-11-15T15:24:11;5.10;;;4.80;;
27802;SDS011;15182;48.174;11.562;2022-11-15T15:26:44;4.43;;;4.33;;
27802;SDS011;15182;48.174;11.562;2022-11-15T15:29:16;4.40;;;4.20;;
27802;SDS011;15182;48.174;11.562;2022-11-15T15:31:47;4.70;;;4.50;;
27802;SDS011;15182;48.174;11.562;2022-11-15T15:34:18;4.37;;;4.27;;
27802;SDS011;15182;48.174;11.562;2022-11-15T15:36:51;5.53;;;5.00;;
27802;SDS011;15182;48.174;11.562;2022-11-15T15:39:38;4.83;;;4.50;;
27802;SDS011;15182;48.174;11.562;2022-11-15T15:42:10;6.23;;;5.40;;
27802;SDS011;15182;48.174;11.562;2022-11-15T15:44:41;5.00;;;4.70;;
27802;SDS011;15182;48.174;11.562;2022-11-15T15:47:13;5.60;;;5.20;;
27802;SDS011;15182;48.174;11.562;2022-11-15T15:49:48;4.87;;;4.67;;
27802;SDS011;15182;48.174;11.562;2022-11-15T15:52:21;5.50;;;5.10;;
27802;SDS011;15182;48.174;11.562;2022-11-15T15:54:53;5.17;;;4.97;;
27802;SDS011;15182;48.174;11.562;2022-11-15T15:57:24;5.47;;;4.97;;
27802;SDS011;15182;48.174;11.562;2022-11-15T15:59:56;5.37;;;5.07;;
27802;SDS011;15182;48.174;11.562;2022-11-15T16:02:27;4.87;;;4.60;;
27802;SDS011;15182;48.174;11.562;2022-11-15T16:04:58;5.20;;;4.90;;
27802;SDS011;15182;48.174;11.562;2022-11-15T16:07:31;5.27;;;4.97;;
27802;SDS011;15182;48.174;11.562;2022-11-15T16:10:04;6.03;;;5.37;;
27802;SDS011;15182;48.174;11.562;2022-11-15T16:12:46;5.20;;;4.90;;
27802;SDS011;15182;48.174;11.562;2022-11-15T16:15:18;5.67;;;5.17;;
27802;SDS011;15182;48.174;11.562;2022-11-15T16:17:51;5.47;;;5.17;;
27802;SDS011;15182;48.174;11.562;2022-11-15T16:20:35;5.03;;;4.73;;
27802;SDS011;15182;48.174;11.562;2022-11-15T16:23:12;5.10;;;4.80;;
27802;SDS011;15182;48.174;11.562;2022-11-15T16:25:46;5.70;;;5.20;;
27802;SDS011;15182;48.174;11.562;2022-11-15T16:28:22;7.83;;;4.80;;
27802;SDS011;15182;48.174;11.562;2022-11-15T16:31:01;5.37;;;5.00;;
27802;SDS011;15182;48.174;11.562;2022-11-15T16:33:35;5.23;;;4.93;;
27802;SDS011;15182;48.174;11.562;2022-11-15T16:36:12;5.50;;;5.03;;
27802;SDS011;15182;48.174;11.562;2022-11-15T16:38:50;5.30;;;4.80;;
27802;SDS011;15182;48.174;11.562;2022-11-15T16:41:22;13.77;;;5.40;;
27802;SDS011;15182;48.174;11.562;2022-11-15T16:43:55;4.63;;;4.43;;
27802;SDS011;15182;48.174;11.562;2022-11-15T16:46:27;5.63;;;5.30;;
27802;SDS011;15182;48.174;11.562;2022-11-15T16:48:59;5.10;;;4.80;;
27802;SDS011;15182;48.174;11.562;2022-11-15T16:51:30;6.27;;;5.30;;